createdAt,value
2017-05-21T00:00:28.182Z,38.51
2017-05-21T00:01:38.124Z,38.7
2017-05-21T00:02:48.044Z,38.7
2017-05-21T00:03:57.957Z,38.51
2017-05-21T00:05:07.552Z,38.79
2017-05-21T00:06:16.845Z,38.79
2017-05-21T00:07:27.053Z,38.99
2017-05-21T00:08:36.362Z,39.18
2017-05-21T00:09:46.597Z,39.37
2017-05-21T00:10:55.892Z,39.28
2017-05-21T00:12:05.799Z,39.28
2017-05-21T00:13:15.087Z,39.28
2017-05-21T00:14:25.053Z,39.18
2017-05-21T00:15:34.677Z,39.28
2017-05-21T00:16:44.893Z,39.28
2017-05-21T00:17:54.821Z,39.18
2017-05-21T00:19:05.037Z,38.99
2017-05-21T00:20:14.334Z,38.89
2017-05-21T00:21:24.259Z,38.99
2017-05-21T00:22:34.182Z,38.99
2017-05-21T00:23:44.416Z,38.99
2017-05-21T00:24:54.323Z,38.99
2017-05-21T00:26:03.660Z,39.56
2017-05-21T00:27:13.564Z,39.28
2017-05-21T00:28:23.778Z,39.37
2017-05-21T00:29:33.393Z,39.37
2017-05-21T00:30:43.318Z,39.56
2017-05-21T00:31:53.543Z,39.28
2017-05-21T00:33:03.457Z,39.28
2017-05-21T00:34:13.074Z,39.47
2017-05-21T00:35:23.018Z,39.37
2017-05-21T00:36:33.234Z,39.18
2017-05-21T00:37:43.146Z,39.47
2017-05-21T00:38:53.375Z,39.56
2017-05-21T00:40:03.285Z,39.56
2017-05-21T00:41:13.504Z,39.76
2017-05-21T00:42:23.414Z,39.76
2017-05-21T00:43:33.011Z,39.76
2017-05-21T00:44:42.923Z,39.66
2017-05-21T00:45:52.556Z,39.74
2017-05-21T00:47:03.617Z,39.74
2017-05-21T00:48:13.945Z,39.83
2017-05-21T00:49:23.874Z,39.95
2017-05-21T00:50:33.188Z,39.54
2017-05-21T00:51:43.054Z,39.93
2017-05-21T00:52:52.669Z,39.93
2017-05-21T00:54:02.998Z,39.93
2017-05-21T00:55:12.388Z,40.03
2017-05-21T00:56:22.304Z,40.41
2017-05-21T00:57:32.630Z,40.22
2017-05-21T00:58:43.419Z,40.22
2017-05-21T00:59:54.287Z,40.22
2017-05-21T01:01:03.963Z,40.31
2017-05-21T01:02:14.280Z,40.31
2017-05-21T01:03:24.209Z,40.22
2017-05-21T01:04:34.139Z,40.22
2017-05-21T01:05:44.363Z,40.22
2017-05-21T01:06:54.038Z,40.61
2017-05-21T01:08:03.747Z,40.31
2017-05-21T01:09:13.237Z,40.61
2017-05-21T01:10:23.458Z,40.7
2017-05-21T01:11:33.679Z,40.41
2017-05-21T01:12:43.337Z,40.51
2017-05-21T01:13:52.944Z,40.61
2017-05-21T01:15:02.257Z,40.51
2017-05-21T01:16:11.864Z,40.51
2017-05-21T01:17:21.804Z,40.8
2017-05-21T01:18:32.036Z,40.58
2017-05-21T01:19:42.304Z,40.61
2017-05-21T01:20:52.594Z,40.58
2017-05-21T01:22:02.510Z,40.7
2017-05-21T01:23:12.103Z,40.61
2017-05-21T01:24:22.018Z,40.51
2017-05-21T01:25:31.627Z,40.68
2017-05-21T01:26:41.922Z,40.8
2017-05-21T01:27:51.842Z,40.88
2017-05-21T01:29:01.767Z,40.89
2017-05-21T01:30:11.985Z,40.78
2017-05-21T01:31:21.596Z,40.68
2017-05-21T01:32:31.197Z,40.88
2017-05-21T01:33:40.805Z,40.68
2017-05-21T01:34:50.099Z,40.78
2017-05-21T01:36:00.372Z,40.88
2017-05-21T01:37:09.970Z,40.88
2017-05-21T01:38:20.189Z,40.78
2017-05-21T01:39:29.801Z,40.97
2017-05-21T01:40:39.720Z,40.68
2017-05-21T01:41:49.938Z,41.06
2017-05-21T01:42:59.840Z,40.88
2017-05-21T01:44:09.761Z,40.97
2017-05-21T01:45:19.684Z,41.06
2017-05-21T01:46:29.594Z,41.06
2017-05-21T01:47:39.887Z,41.26
2017-05-21T01:48:49.477Z,41.16
2017-05-21T01:49:59.399Z,41.06
2017-05-21T01:51:08.706Z,41.16
2017-05-21T01:52:17.697Z,41.16
2017-05-21T01:53:27.657Z,40.97
2017-05-21T01:54:37.271Z,41.06
2017-05-21T01:55:46.876Z,40.97
2017-05-21T01:56:57.093Z,40.88
2017-05-21T01:58:06.405Z,41.06
2017-05-21T01:59:16.314Z,41.06
2017-05-21T02:00:26.230Z,41.06
2017-05-21T02:01:36.142Z,41.16
2017-05-21T02:02:46.381Z,41.06
2017-05-21T02:03:55.998Z,41.16
2017-05-21T02:05:05.909Z,41.16
2017-05-21T02:06:15.830Z,41.16
2017-05-21T02:07:25.429Z,41.16
2017-05-21T02:08:34.106Z,41.16
2017-05-21T02:09:44.334Z,41.16
2017-05-21T02:10:53.917Z,41.26
2017-05-21T02:12:03.526Z,41.93
2017-05-21T02:13:13.465Z,41.55
2017-05-21T02:14:23.376Z,41.55
2017-05-21T02:15:32.970Z,41.45
2017-05-21T02:16:42.566Z,41.62
2017-05-21T02:17:52.471Z,41.82
2017-05-21T02:19:02.750Z,41.82
2017-05-21T02:20:12.043Z,41.62
2017-05-21T02:21:22.257Z,41.83
2017-05-21T02:22:31.552Z,41.62
2017-05-21T02:23:41.140Z,41.64
2017-05-21T02:24:51.072Z,41.53
2017-05-21T02:26:01.294Z,41.53
2017-05-21T02:27:11.509Z,41.74
2017-05-21T02:28:21.722Z,41.55
2017-05-21T02:29:31.628Z,41.53
2017-05-21T02:30:41.535Z,41.43
2017-05-21T02:31:51.137Z,41.82
2017-05-21T02:33:01.361Z,41.93
2017-05-21T02:34:10.958Z,41.62
2017-05-21T02:35:20.880Z,41.53
2017-05-21T02:36:30.481Z,41.53
2017-05-21T02:37:40.385Z,41.83
2017-05-21T02:38:49.683Z,41.64
2017-05-21T02:39:59.895Z,41.62
2017-05-21T02:41:10.108Z,41.82
2017-05-21T02:42:20.329Z,41.91
2017-05-21T02:43:30.237Z,41.74
2017-05-21T02:44:40.136Z,41.82
2017-05-21T02:45:50.351Z,41.55
2017-05-21T02:46:59.952Z,41.74
2017-05-21T02:48:09.861Z,41.64
2017-05-21T02:49:20.091Z,41.55
2017-05-21T02:50:30.008Z,41.55
2017-05-21T02:51:40.234Z,41.74
2017-05-21T02:52:50.453Z,41.72
2017-05-21T02:54:00.673Z,41.55
2017-05-21T02:55:10.898Z,41.72
2017-05-21T02:56:21.125Z,41.72
2017-05-21T02:57:31.049Z,41.72
2017-05-21T02:58:41.012Z,41.82
2017-05-21T02:59:51.242Z,41.62
2017-05-21T03:01:01.143Z,41.62
2017-05-21T03:02:11.370Z,41.91
2017-05-21T03:03:21.597Z,41.53
2017-05-21T03:04:31.215Z,41.62
2017-05-21T03:05:40.879Z,41.91
2017-05-21T03:06:50.483Z,41.82
2017-05-21T03:08:00.386Z,42
2017-05-21T03:09:09.972Z,41.72
2017-05-21T03:10:19.870Z,41.72
2017-05-21T03:11:29.156Z,41.82
2017-05-21T03:12:39.065Z,42.1
2017-05-21T03:13:48.997Z,41.91
2017-05-21T03:14:58.896Z,41.91
2017-05-21T03:16:08.811Z,42
2017-05-21T03:17:17.874Z,41.91
2017-05-21T03:18:28.131Z,42.3
2017-05-21T03:19:37.748Z,42.2
2017-05-21T03:20:48.017Z,42.1
2017-05-21T03:21:57.915Z,42.1
2017-05-21T03:23:08.123Z,42.2
2017-05-21T03:24:17.733Z,42.3
2017-05-21T03:25:27.637Z,42.2
2017-05-21T03:26:37.239Z,42.2
2017-05-21T03:27:47.450Z,42
2017-05-21T03:28:57.054Z,41.82
2017-05-21T03:30:06.975Z,42.1
2017-05-21T03:31:16.279Z,42.2
2017-05-21T03:32:25.260Z,42.3
2017-05-21T03:33:34.874Z,42.2
2017-05-21T03:34:44.839Z,42.39
2017-05-21T03:35:55.052Z,42.1
2017-05-21T03:37:04.956Z,42.27
2017-05-21T03:38:14.257Z,42.18
2017-05-21T03:39:24.495Z,42.58
2017-05-21T03:40:34.717Z,42.37
2017-05-21T03:41:44.626Z,42.66
2017-05-21T03:42:54.551Z,42.66
2017-05-21T03:44:04.776Z,42.47
2017-05-21T03:45:14.386Z,42.56
2017-05-21T03:46:24.294Z,42.47
2017-05-21T03:47:34.506Z,42.47
2017-05-21T03:48:44.123Z,42.3
2017-05-21T03:49:54.033Z,42.18
2017-05-21T03:51:04.247Z,42.27
2017-05-21T03:52:14.219Z,42.27
2017-05-21T03:53:23.838Z,42.37
2017-05-21T03:54:34.051Z,42.37
2017-05-21T03:55:44.006Z,42.27
2017-05-21T03:56:53.906Z,42.27
2017-05-21T03:58:03.831Z,42.47
2017-05-21T03:59:13.455Z,42.56
2017-05-21T04:00:23.366Z,42.47
2017-05-21T04:01:32.965Z,42.47
2017-05-21T04:02:42.567Z,42.85
2017-05-21T04:03:52.199Z,42.76
2017-05-21T04:05:02.414Z,42.56
2017-05-21T04:06:12.319Z,42.66
2017-05-21T04:07:22.223Z,42.76
2017-05-21T04:08:31.825Z,42.66
2017-05-21T04:09:41.456Z,42.76
2017-05-21T04:10:51.668Z,42.76
2017-05-21T04:12:01.585Z,42.76
2017-05-21T04:13:11.200Z,42.56
2017-05-21T04:14:20.488Z,42.76
2017-05-21T04:15:30.381Z,42.56
2017-05-21T04:16:40.276Z,42.66
2017-05-21T04:17:50.490Z,42.66
2017-05-21T04:19:00.727Z,42.66
2017-05-21T04:20:10.637Z,42.56
2017-05-21T04:21:20.238Z,42.56
2017-05-21T04:22:29.831Z,42.56
2017-05-21T04:23:39.122Z,42.66
2017-05-21T04:24:49.339Z,42.56
2017-05-21T04:25:59.246Z,42.66
2017-05-21T04:27:09.468Z,42.56
2017-05-21T04:28:18.764Z,42.76
2017-05-21T04:29:28.980Z,42.56
2017-05-21T04:30:39.210Z,42.47
2017-05-21T04:31:49.123Z,42.47
2017-05-21T04:32:59.054Z,42.56
2017-05-21T04:34:09.500Z,42.56
2017-05-21T04:35:18.490Z,42.47
2017-05-21T04:36:28.088Z,42.37
2017-05-21T04:37:37.682Z,42.47
2017-05-21T04:38:47.600Z,42.37
2017-05-21T04:39:56.884Z,42.18
2017-05-21T04:41:06.795Z,42.39
2017-05-21T04:42:16.709Z,42.37
2017-05-21T04:43:26.666Z,42.3
2017-05-21T04:44:36.575Z,42.18
2017-05-21T04:45:46.480Z,42.08
2017-05-21T04:46:56.096Z,42.2
2017-05-21T04:48:06.024Z,42.49
2017-05-21T04:49:15.636Z,42.37
2017-05-21T04:50:25.553Z,41.89
2017-05-21T04:51:35.144Z,42.37
2017-05-21T04:52:45.052Z,42.49
2017-05-21T04:53:54.967Z,42.37
2017-05-21T04:55:04.561Z,42.56
2017-05-21T04:56:14.779Z,42.37
2017-05-21T04:57:25.037Z,42.47
2017-05-21T04:58:34.399Z,42.66
2017-05-21T04:59:44.012Z,42.56
2017-05-21T05:00:53.612Z,42.66
2017-05-21T05:02:03.522Z,42.56
2017-05-21T05:03:13.423Z,42.76
2017-05-21T05:04:23.022Z,42.56
2017-05-21T05:05:32.310Z,42.47
2017-05-21T05:06:41.901Z,42.56
2017-05-21T05:07:51.500Z,42.47
2017-05-21T05:09:01.419Z,42.47
2017-05-21T05:10:11.629Z,42.18
2017-05-21T05:11:20.930Z,42.37
2017-05-21T05:12:30.531Z,42.18
2017-05-21T05:13:40.759Z,42.2
2017-05-21T05:14:50.069Z,41.91
2017-05-21T05:15:59.981Z,41.62
2017-05-21T05:17:09.882Z,41.53
2017-05-21T05:18:20.100Z,41.14
2017-05-21T05:19:30.389Z,40.88
2017-05-21T05:20:40.529Z,40.68
2017-05-21T05:21:50.132Z,40.58
2017-05-21T05:22:59.735Z,40.3
2017-05-21T05:24:09.351Z,40.31
2017-05-21T05:25:19.272Z,40.41
2017-05-21T05:26:29.172Z,39.93
2017-05-21T05:27:38.784Z,39.64
2017-05-21T05:28:48.412Z,39.45
2017-05-21T05:29:58.013Z,39.47
2017-05-21T05:31:07.927Z,38.99
2017-05-21T05:32:17.836Z,38.89
2017-05-21T05:33:27.753Z,38.91
2017-05-21T05:34:37.664Z,38.53
2017-05-21T05:35:46.982Z,38.24
2017-05-21T05:39:29.231Z,37.68
2017-05-21T05:43:11.501Z,37.7
2017-05-21T05:44:20.844Z,37.6
2017-05-21T05:45:30.457Z,37.6
2017-05-21T05:46:40.061Z,37.5
2017-05-21T05:47:49.362Z,37.21
2017-05-21T05:48:58.975Z,37.12
2017-05-21T05:50:08.885Z,36.94
2017-05-21T05:51:19.089Z,36.65
2017-05-21T05:52:28.698Z,36.75
2017-05-21T05:53:38.603Z,36.65
2017-05-21T05:54:48.215Z,36.36
2017-05-21T05:55:57.841Z,36.48
2017-05-21T05:57:07.461Z,36.38
2017-05-21T05:58:17.372Z,36.09
2017-05-21T05:59:27.290Z,35.9
2017-05-21T06:00:36.908Z,35.82
2017-05-21T06:01:47.136Z,35.34
2017-05-21T06:02:57.357Z,35.63
2017-05-21T06:04:07.572Z,35.34
2017-05-21T06:05:17.180Z,35.26
2017-05-21T06:06:27.081Z,35.16
2017-05-21T06:07:36.999Z,35.06
2017-05-21T06:08:46.911Z,35.26
2017-05-21T06:09:57.149Z,35.36
2017-05-21T06:11:07.043Z,34.87
2017-05-21T06:12:17.384Z,34.78
2017-05-21T06:13:27.341Z,34.7
2017-05-21T06:14:37.282Z,34.6
2017-05-21T06:15:47.193Z,34.5
2017-05-21T06:16:56.823Z,34.5
2017-05-21T06:18:06.742Z,34.31
2017-05-21T06:19:16.336Z,34.79
2017-05-21T06:20:25.652Z,34.52
2017-05-21T06:21:35.250Z,34.04
2017-05-21T06:22:44.855Z,34.04
2017-05-21T06:23:55.070Z,34.33
2017-05-21T06:25:05.285Z,34.33
2017-05-21T06:26:15.201Z,34.44
2017-05-21T06:27:24.807Z,33.95
2017-05-21T06:28:34.726Z,34.54
2017-05-21T06:29:43.759Z,34.54
2017-05-21T06:30:53.066Z,34.44
2017-05-21T06:32:02.657Z,34.25
2017-05-21T06:33:12.569Z,34.71
2017-05-21T06:34:22.489Z,34.52
2017-05-21T06:35:32.710Z,34.91
2017-05-21T06:36:42.010Z,35.29
2017-05-21T06:37:51.607Z,35.2
2017-05-21T06:39:01.530Z,35.47
2017-05-21T06:40:11.454Z,35.57
2017-05-21T06:41:21.358Z,36.15
2017-05-21T06:42:31.572Z,36.13
2017-05-21T06:43:41.618Z,36.8
2017-05-21T06:44:51.910Z,36.8
2017-05-21T06:46:01.833Z,36.88
2017-05-21T06:47:12.064Z,37.08
2017-05-21T06:48:22.282Z,36.98
2017-05-21T06:49:32.554Z,37.17
2017-05-21T06:50:42.166Z,36.98
2017-05-21T06:51:51.542Z,37.17
2017-05-21T06:53:01.440Z,37.08
2017-05-21T06:54:11.348Z,36.69
2017-05-21T06:55:21.581Z,35.84
2017-05-21T06:56:31.186Z,35.08
2017-05-21T06:57:40.796Z,34.42
2017-05-21T06:58:51.027Z,33.76
2017-05-21T07:00:00.644Z,33.29
2017-05-21T07:01:10.247Z,32.15
2017-05-21T07:02:20.457Z,31.78
2017-05-21T07:03:29.764Z,31.21
2017-05-21T07:04:39.985Z,30.45
2017-05-21T07:05:50.205Z,29.98
2017-05-21T07:07:00.414Z,29.51
2017-05-21T07:08:10.312Z,29.24
2017-05-21T07:09:20.232Z,28.57
2017-05-21T07:10:29.526Z,28.19
2017-05-21T07:11:39.130Z,27.82
2017-05-21T07:12:48.742Z,27.34
2017-05-21T07:13:58.965Z,26.68
2017-05-21T07:15:09.178Z,26.68
2017-05-21T07:16:18.795Z,26.31
2017-05-21T07:17:28.400Z,25.73
2017-05-21T07:18:37.391Z,25.45
2017-05-21T07:19:47.000Z,24.98
2017-05-21T07:20:56.615Z,24.99
2017-05-21T07:22:05.911Z,24.51
2017-05-21T07:23:15.528Z,23.93
2017-05-21T07:24:24.822Z,23.74
2017-05-21T07:25:35.052Z,23.55
2017-05-21T07:26:45.319Z,23.47
2017-05-21T07:27:55.239Z,22.98
2017-05-21T07:29:05.156Z,22.8
2017-05-21T07:30:15.064Z,22.81
2017-05-21T07:31:24.978Z,22.81
2017-05-21T07:32:34.577Z,22.72
2017-05-21T07:33:44.180Z,22.52
2017-05-21T07:34:53.481Z,22.62
2017-05-21T07:36:03.403Z,22.52
2017-05-21T07:37:13.003Z,22.34
2017-05-21T07:38:22.292Z,22.44
2017-05-21T07:39:31.919Z,22.06
2017-05-21T07:40:42.199Z,21.76
2017-05-21T07:41:51.837Z,21.87
2017-05-21T07:43:02.094Z,21.87
2017-05-21T07:44:12.006Z,21.87
2017-05-21T07:45:21.629Z,21.97
2017-05-21T07:46:31.579Z,22.08
2017-05-21T07:47:41.506Z,21.98
2017-05-21T07:48:50.807Z,21.98
2017-05-21T07:50:00.749Z,21.88
2017-05-21T07:51:10.661Z,21.88
2017-05-21T07:52:20.255Z,21.78
2017-05-21T07:53:30.164Z,21.8
2017-05-21T07:54:40.069Z,21.59
2017-05-21T07:55:49.972Z,21.69
2017-05-21T07:56:59.575Z,21.69
2017-05-21T07:58:09.852Z,21.61
2017-05-21T07:59:18.843Z,21.7
2017-05-21T08:00:28.777Z,21.9
2017-05-21T08:01:38.389Z,22
2017-05-21T08:02:47.691Z,21.7
2017-05-21T08:03:57.601Z,21.61
2017-05-21T08:05:07.543Z,21.41
2017-05-21T08:06:17.456Z,21.12
2017-05-21T08:07:27.677Z,21.12
2017-05-21T08:08:37.592Z,21.04
2017-05-21T08:09:47.501Z,21.04
2017-05-21T08:10:57.159Z,20.94
2017-05-21T08:12:06.463Z,20.94
2017-05-21T08:13:16.700Z,20.94
2017-05-21T08:14:26.322Z,21.04
2017-05-21T08:15:36.005Z,21.15
2017-05-21T08:16:45.626Z,21.15
2017-05-21T08:17:54.912Z,21.05
2017-05-21T08:19:05.126Z,21.05
2017-05-21T08:20:14.730Z,20.95
2017-05-21T08:21:24.644Z,21.14
2017-05-21T08:22:34.250Z,21.23
2017-05-21T08:23:43.861Z,21.14
2017-05-21T08:24:53.480Z,21.25
2017-05-21T08:26:03.084Z,21.25
2017-05-21T08:27:12.998Z,20.95
2017-05-21T08:28:22.911Z,20.95
2017-05-21T08:29:33.119Z,21.15
2017-05-21T08:30:42.727Z,21.06
2017-05-21T08:31:52.334Z,21.05
2017-05-21T08:33:02.334Z,21.06
2017-05-21T08:34:12.255Z,21.06
2017-05-21T08:35:22.180Z,21.06
2017-05-21T08:36:32.109Z,20.96
2017-05-21T08:37:42.031Z,21.06
2017-05-21T08:38:52.259Z,21.36
2017-05-21T08:40:02.503Z,20.97
2017-05-21T08:41:12.422Z,20.87
2017-05-21T08:42:22.022Z,20.97
2017-05-21T08:43:31.331Z,21.07
2017-05-21T08:44:40.059Z,21.17
2017-05-21T08:45:50.049Z,21.55
2017-05-21T08:46:59.657Z,22.33
2017-05-21T08:48:09.592Z,22.61
2017-05-21T08:49:19.512Z,22.99
2017-05-21T08:50:29.433Z,24.06
2017-05-21T08:51:39.053Z,24.63
2017-05-21T08:52:48.392Z,25.01
2017-05-21T08:53:58.637Z,25.68
2017-05-21T08:55:08.885Z,26.25
2017-05-21T08:56:18.813Z,26.54
2017-05-21T08:57:28.432Z,26.82
2017-05-21T08:58:38.377Z,27.59
2017-05-21T08:59:48.318Z,28.06
2017-05-21T09:00:57.641Z,28.25
2017-05-21T09:02:07.565Z,28.82
2017-05-21T09:03:17.482Z,29.3
2017-05-21T09:04:27.087Z,29.59
2017-05-21T09:05:36.704Z,29.67
2017-05-21T09:06:46.642Z,30.24
2017-05-21T09:07:55.940Z,30.52
2017-05-21T09:09:05.558Z,30.71
2017-05-21T09:10:15.782Z,31.38
2017-05-21T09:11:25.398Z,31.48
2017-05-21T09:12:35.800Z,31.76
2017-05-21T09:13:47.227Z,32.32
2017-05-21T09:14:56.771Z,32.7
2017-05-21T09:16:07.592Z,33.28
2017-05-21T09:17:18.516Z,33.65
2017-05-21T09:18:28.211Z,33.83
2017-05-21T09:19:37.815Z,34.22
2017-05-21T09:20:47.945Z,34.5
2017-05-21T09:21:57.338Z,34.87
2017-05-21T09:23:06.721Z,34.75
2017-05-21T09:24:16.727Z,35.43
2017-05-21T09:25:27.235Z,35.82
2017-05-21T09:26:36.408Z,36
2017-05-21T09:27:46.071Z,36.27
2017-05-21T09:28:56.065Z,36.46
2017-05-21T09:30:05.810Z,36.83
2017-05-21T09:31:16.008Z,36.93
2017-05-21T09:32:26.083Z,36.83
2017-05-21T09:33:37.615Z,37.21
2017-05-21T09:34:48.511Z,37.01
2017-05-21T09:35:58.231Z,37.4
2017-05-21T09:37:07.996Z,37.09
2017-05-21T09:38:17.632Z,37.28
2017-05-21T09:39:27.885Z,37.38
2017-05-21T09:40:37.829Z,37.38
2017-05-21T09:41:47.220Z,37.38
2017-05-21T09:42:56.948Z,37.38
2017-05-21T09:44:07.216Z,37.48
2017-05-21T09:45:17.061Z,37.46
2017-05-21T09:46:26.986Z,37.75
2017-05-21T09:47:36.895Z,37.85
2017-05-21T09:48:46.812Z,37.85
2017-05-21T09:49:55.864Z,37.82
2017-05-21T09:51:06.086Z,37.82
2017-05-21T09:52:16.313Z,37.73
2017-05-21T09:53:26.536Z,37.73
2017-05-21T09:54:36.142Z,37.73
2017-05-21T09:55:46.066Z,37.92
2017-05-21T09:56:55.706Z,37.73
2017-05-21T09:58:05.956Z,37.71
2017-05-21T09:59:16.192Z,37.9
2017-05-21T10:00:26.906Z,37.9
2017-05-21T10:01:36.905Z,37.81
2017-05-21T10:02:46.830Z,37.71
2017-05-21T10:03:57.448Z,37.71
2017-05-21T10:05:06.794Z,37.62
2017-05-21T10:06:16.787Z,37.32
2017-05-21T10:07:27.219Z,37.42
2017-05-21T10:08:36.227Z,37.32
2017-05-21T10:09:46.158Z,37.32
2017-05-21T10:10:56.725Z,36.94
2017-05-21T10:12:06.091Z,37.04
2017-05-21T10:13:15.995Z,37.23
2017-05-21T10:14:26.087Z,37.13
2017-05-21T10:15:35.700Z,37.04
2017-05-21T10:16:45.624Z,37.23
2017-05-21T10:17:55.224Z,37.04
2017-05-21T10:19:05.137Z,37.13
2017-05-21T10:20:15.049Z,37.13
2017-05-21T10:21:24.349Z,37.04
2017-05-21T10:22:33.960Z,37.13
2017-05-21T10:23:43.577Z,37.02
2017-05-21T10:24:53.509Z,36.72
2017-05-21T10:26:03.765Z,36.82
2017-05-21T10:27:13.072Z,37.02
2017-05-21T10:28:23.161Z,36.82
2017-05-21T10:29:32.792Z,36.92
2017-05-21T10:30:42.707Z,36.82
2017-05-21T10:31:52.767Z,36.82
2017-05-21T10:33:03.008Z,36.92
2017-05-21T10:34:13.111Z,36.72
2017-05-21T10:35:23.034Z,36.72
2017-05-21T10:36:33.270Z,36.72
2017-05-21T10:37:43.278Z,36.72
2017-05-21T10:38:52.906Z,36.72
2017-05-21T10:40:02.662Z,36.53
2017-05-21T10:41:12.887Z,36.72
2017-05-21T10:42:22.214Z,36.71
2017-05-21T10:43:32.122Z,36.8
2017-05-21T10:44:41.429Z,36.32
2017-05-21T10:45:51.350Z,36.52
2017-05-21T10:47:00.683Z,36.42
2017-05-21T10:48:10.900Z,36.42
2017-05-21T10:49:20.508Z,36.42
2017-05-21T10:50:30.738Z,36.42
2017-05-21T10:51:40.457Z,36.13
2017-05-21T10:52:50.686Z,36.32
2017-05-21T10:54:00.587Z,36.32
2017-05-21T10:55:10.500Z,36.03
2017-05-21T10:56:19.783Z,36.13
2017-05-21T10:57:29.384Z,35.94
2017-05-21T10:58:39.308Z,35.94
2017-05-21T10:59:49.242Z,35.55
2017-05-21T11:00:58.548Z,35.64
2017-05-21T11:02:08.783Z,35.45
2017-05-21T11:03:18.379Z,35.45
2017-05-21T11:04:28.290Z,35.26
2017-05-21T11:05:38.514Z,35.26
2017-05-21T11:06:48.438Z,35.26
2017-05-21T11:07:58.364Z,35.18
2017-05-21T11:09:07.962Z,35.16
2017-05-21T11:10:17.259Z,35.06
2017-05-21T11:11:26.855Z,35.26
2017-05-21T11:12:36.768Z,35.26
2017-05-21T11:13:46.385Z,35.16
2017-05-21T11:14:56.752Z,35.16
2017-05-21T11:16:06.366Z,35.06
2017-05-21T11:17:16.283Z,35.26
2017-05-21T11:18:25.882Z,35.06
2017-05-21T11:19:35.492Z,35.26
2017-05-21T11:20:45.444Z,35.26
2017-05-21T11:21:55.357Z,35.26
2017-05-21T11:23:04.956Z,35.36
2017-05-21T11:24:14.857Z,34.87
2017-05-21T11:25:24.156Z,34.68
2017-05-21T11:26:34.375Z,34.68
2017-05-21T11:27:44.301Z,34.58
2017-05-21T11:28:54.513Z,34.68
2017-05-21T11:30:04.411Z,35.06
2017-05-21T11:31:14.019Z,34.78
2017-05-21T11:32:24.078Z,34.2
2017-05-21T11:33:34.291Z,34.58
2017-05-21T11:34:44.233Z,34.2
2017-05-21T11:35:54.166Z,34.2
2017-05-21T11:37:04.066Z,34.29
2017-05-21T11:38:14.333Z,34.48
2017-05-21T11:39:24.547Z,34.2
2017-05-21T11:40:34.444Z,34.2
2017-05-21T11:41:44.085Z,33.91
2017-05-21T11:42:53.395Z,33.72
2017-05-21T11:44:03.452Z,33.52
2017-05-21T11:45:13.383Z,33.63
2017-05-21T11:46:23.292Z,33.83
2017-05-21T11:47:33.507Z,33.34
2017-05-21T11:48:42.821Z,33.54
2017-05-21T11:49:52.471Z,33.63
2017-05-21T11:51:02.068Z,33.54
2017-05-21T11:52:12.295Z,33.23
2017-05-21T11:53:22.504Z,33.15
2017-05-21T11:54:32.425Z,33.25
2017-05-21T11:55:42.672Z,33.34
2017-05-21T11:56:51.975Z,33.44
2017-05-21T11:58:01.877Z,33.25
2017-05-21T11:59:11.786Z,33.25
2017-05-21T12:00:21.384Z,33.25
2017-05-21T12:01:31.090Z,33.05
2017-05-21T12:02:40.688Z,32.96
2017-05-21T12:03:50.917Z,32.96
2017-05-21T12:05:00.512Z,32.86
2017-05-21T12:06:10.409Z,33.15
2017-05-21T12:07:19.704Z,33.05
2017-05-21T12:08:29.608Z,32.57
2017-05-21T12:09:39.508Z,32.57
2017-05-21T12:10:49.429Z,32.67
2017-05-21T12:11:59.650Z,32.67
2017-05-21T12:13:10.012Z,32.86
2017-05-21T12:14:19.918Z,32.47
2017-05-21T12:15:29.835Z,32.57
2017-05-21T12:16:39.750Z,32.47
2017-05-21T12:17:49.655Z,32.57
2017-05-21T12:18:59.104Z,32.28
2017-05-21T12:20:09.328Z,32.47
2017-05-21T12:21:19.535Z,32.38
2017-05-21T12:22:29.444Z,32.47
2017-05-21T12:23:39.660Z,32.18
2017-05-21T12:24:49.586Z,32.28
2017-05-21T12:25:59.796Z,32.09
2017-05-21T12:27:09.391Z,32.09
2017-05-21T12:28:19.614Z,32.18
2017-05-21T12:29:29.850Z,32.09
2017-05-21T12:30:39.911Z,32.09
2017-05-21T12:31:49.500Z,31.99
2017-05-21T12:32:59.409Z,32.09
2017-05-21T12:34:09.015Z,32.09
2017-05-21T12:35:18.002Z,31.8
2017-05-21T12:36:28.262Z,31.99
2017-05-21T12:37:37.557Z,31.99
2017-05-21T12:38:46.868Z,31.99
2017-05-21T12:39:56.792Z,31.89
2017-05-21T12:41:06.410Z,31.89
2017-05-21T12:42:16.776Z,32.09
2017-05-21T12:43:26.688Z,31.99
2017-05-21T12:44:36.904Z,32.09
2017-05-21T12:45:46.808Z,31.89
2017-05-21T12:46:56.711Z,31.8
2017-05-21T12:48:06.622Z,31.8
2017-05-21T12:49:16.838Z,31.7
2017-05-21T12:50:26.456Z,31.6
2017-05-21T12:51:36.065Z,31.89
2017-05-21T12:52:45.981Z,31.51
2017-05-21T12:53:56.046Z,31.6
2017-05-21T12:55:06.270Z,31.51
2017-05-21T12:56:15.867Z,31.6
2017-05-21T12:57:25.816Z,31.51
2017-05-21T12:58:35.836Z,31.31
2017-05-21T12:59:45.855Z,31.41
2017-05-21T13:00:55.781Z,31.41
2017-05-21T13:02:05.375Z,31.31
2017-05-21T13:03:15.607Z,31.31
2017-05-21T13:04:25.523Z,31.31
2017-05-21T13:05:35.907Z,31.31
2017-05-21T13:06:45.201Z,31.31
2017-05-21T13:07:55.419Z,31.31
2017-05-21T13:09:05.037Z,31.41
2017-05-21T13:10:14.954Z,31.31
2017-05-21T13:11:24.608Z,31.12
2017-05-21T13:12:34.523Z,31.31
2017-05-21T13:13:44.439Z,31.02
2017-05-21T13:14:54.687Z,31.22
2017-05-21T13:16:04.311Z,31.12
2017-05-21T13:17:14.542Z,31.12
2017-05-21T13:18:24.199Z,31.12
2017-05-21T13:19:34.135Z,30.93
2017-05-21T13:20:43.140Z,31.02
2017-05-21T13:21:52.442Z,31.12
2017-05-21T13:23:01.527Z,31.02
2017-05-21T13:24:11.426Z,31.12
2017-05-21T13:25:21.035Z,30.83
2017-05-21T13:26:30.674Z,30.73
2017-05-21T13:27:40.606Z,30.73
2017-05-21T13:28:50.636Z,30.83
2017-05-21T13:30:00.282Z,30.73
2017-05-21T13:31:09.889Z,30.63
2017-05-21T13:32:19.499Z,30.73
2017-05-21T13:33:29.425Z,30.73
2017-05-21T13:34:38.617Z,30.44
2017-05-21T13:35:48.235Z,30.44
2017-05-21T13:36:58.184Z,30.35
2017-05-21T13:38:08.095Z,30.54
2017-05-21T13:39:17.693Z,30.54
2017-05-21T13:40:27.468Z,30.05
2017-05-21T13:41:37.688Z,30.05
2017-05-21T13:42:47.320Z,30.05
2017-05-21T13:43:56.937Z,30.15
2017-05-21T13:45:07.165Z,30.05
2017-05-21T13:46:16.634Z,30.44
2017-05-21T13:47:26.552Z,30.25
2017-05-21T13:48:36.469Z,30.15
2017-05-21T13:49:46.402Z,30.15
2017-05-21T13:50:55.711Z,30.25
2017-05-21T13:52:05.324Z,30.44
2017-05-21T13:53:14.954Z,30.15
2017-05-21T13:54:24.262Z,30.36
2017-05-21T13:55:34.182Z,30.27
2017-05-21T13:56:44.106Z,29.97
2017-05-21T13:57:54.536Z,29.88
2017-05-21T13:59:04.477Z,29.97
2017-05-21T14:00:14.396Z,29.78
2017-05-21T14:01:24.321Z,29.88
2017-05-21T14:02:33.672Z,29.78
2017-05-21T14:03:43.550Z,30.27
2017-05-21T14:04:53.320Z,29.59
2017-05-21T14:06:02.710Z,29.88
2017-05-21T14:07:12.369Z,29.78
2017-05-21T14:08:22.365Z,29.69
2017-05-21T14:09:32.124Z,29.78
2017-05-21T14:10:41.745Z,29.78
2017-05-21T14:11:51.048Z,29.78
2017-05-21T14:13:00.368Z,29.97
2017-05-21T14:14:10.598Z,29.39
2017-05-21T14:15:20.383Z,29.59
2017-05-21T14:16:30.030Z,29.59
2017-05-21T14:17:39.676Z,29.78
2017-05-21T14:18:48.995Z,29.97
2017-05-21T14:19:58.648Z,29.59
2017-05-21T14:21:08.123Z,29.69
2017-05-21T14:22:18.113Z,29.69
2017-05-21T14:23:27.823Z,29.59
2017-05-21T14:24:37.471Z,29.59
2017-05-21T14:25:46.784Z,29.39
2017-05-21T14:26:55.993Z,29.59
2017-05-21T14:28:05.981Z,29.59
2017-05-21T14:29:15.369Z,29.59
2017-05-21T14:30:25.277Z,29.49
2017-05-21T14:31:34.911Z,29.49
2017-05-21T14:32:44.094Z,29.69
2017-05-21T14:33:54.441Z,29.69
2017-05-21T14:35:04.443Z,29.88
2017-05-21T14:36:13.442Z,29.59
2017-05-21T14:37:23.141Z,29.88
2017-05-21T14:38:33.388Z,29.39
2017-05-21T14:39:43.632Z,29.39
2017-05-21T14:40:52.941Z,29.39
2017-05-21T14:42:03.183Z,29.59
2017-05-21T14:43:13.485Z,29.49
2017-05-21T14:44:22.969Z,29.3
2017-05-21T14:45:32.452Z,29.39
2017-05-21T14:46:42.695Z,29.49
2017-05-21T14:47:51.486Z,29.39
2017-05-21T14:49:01.791Z,29.49
2017-05-21T14:50:11.771Z,29.2
2017-05-21T14:51:21.709Z,29.2
2017-05-21T14:52:31.461Z,29.59
2017-05-21T14:53:41.827Z,29.49
2017-05-21T14:54:51.131Z,29.49
2017-05-21T14:55:59.879Z,29.49
2017-05-21T14:57:08.996Z,29.39
2017-05-21T14:58:19.244Z,29.39
2017-05-21T14:59:29.845Z,29.78
2017-05-21T15:00:39.817Z,29.97
2017-05-21T15:01:49.824Z,29.97
2017-05-21T15:02:59.914Z,29.69
2017-05-21T15:04:09.874Z,29.69
2017-05-21T15:05:20.528Z,29.78
2017-05-21T15:06:31.139Z,29.77
2017-05-21T15:07:41.473Z,29.67